Time;durP1;ratioP1;P1;durP2;ratioP2;P2;SDS_P1;SDS_P2;PMS_P1;PMS_P2;Temp;Humidity;BMP_temperature;BMP_pressure;BME280_temperature;BME280_humidity;BME280_pressure;Samples;Min_cycle;Max_cycle;Signal;HPM_P1;HPM_P2
2022/02/07 00:00:45;;;;;;;5.30;1.57;;;4.80;99.90;;;;;;5080264;28;20432;-78
2022/02/07 00:03:53;;;;;;;9.33;1.83;;;4.80;99.90;;;;;;5080072;28;20468;-78
2022/02/07 00:06:06;;;;;;;9.87;1.40;;;4.60;99.90;;;;;;5096746;28;20428;-78
2022/02/07 00:08:34;;;;;;;4.93;1.20;;;4.50;99.90;;;;;;5080211;28;20451;-78
2022/02/07 00:11:00;;;;;;;3.53;1.50;;;4.50;99.90;;;;;;5080846;28;20737;-78
2022/02/07 00:13:26;;;;;;;6.43;1.43;;;4.30;99.90;;;;;;5077996;28;20460;-78
2022/02/07 00:15:52;;;;;;;7.37;3.20;;;4.10;99.90;;;;;;5080591;28;20428;-78
2022/02/07 00:18:18;;;;;;;2.73;1.40;;;4.10;99.90;;;;;;5079660;28;20182;-78
2022/02/07 00:20:43;;;;;;;4.10;1.20;;;4.00;99.90;;;;;;5081211;28;20189;-78
2022/02/07 00:23:09;;;;;;;6.40;1.77;;;3.90;99.90;;;;;;5081598;28;20447;-78
2022/02/07 00:25:36;;;;;;;5.50;1.50;;;3.80;99.90;;;;;;5082873;28;20193;-78
2022/02/07 00:28:02;;;;;;;5.77;1.47;;;3.80;99.90;;;;;;5082431;28;20481;-78
2022/02/07 00:30:28;;;;;;;9.07;1.50;;;3.70;99.90;;;;;;5083256;28;20456;-78
2022/02/07 00:32:54;;;;;;;3.40;1.80;;;3.70;99.90;;;;;;5082509;28;20458;-78
2022/02/07 00:35:23;;;;;;;7.83;1.60;;;3.70;99.90;;;;;;5082433;28;20470;-77
2022/02/07 00:37:51;;;;;;;3.23;1.43;;;3.80;99.90;;;;;;5081149;28;20852;-78
2022/02/07 00:45:39;;;;;;;7.73;1.60;;;3.60;99.90;;;;;;5100731;28;20503;-77
2022/02/07 00:48:09;;;;;;;3.23;1.43;;;3.60;99.90;;;;;;5081747;28;20427;-77
2022/02/07 00:50:37;;;;;;;5.47;1.47;;;3.60;99.90;;;;;;5082132;28;20459;-78
2022/02/07 00:53:05;;;;;;;3.20;1.30;;;3.50;99.90;;;;;;5081480;28;20498;-78
2022/02/07 00:55:31;;;;;;;4.20;1.50;;;3.40;99.90;;;;;;5081945;28;20790;-78
2022/02/07 00:57:57;;;;;;;2.77;1.03;;;3.40;99.90;;;;;;5081478;28;20477;-78
2022/02/07 01:00:23;;;;;;;5.23;1.90;;;3.30;99.90;;;;;;5077960;22;20586;-77
2022/02/07 01:02:49;;;;;;;5.20;2.00;;;3.30;99.90;;;;;;5054382;28;20290;-77
2022/02/07 01:05:16;;;;;;;7.53;1.63;;;3.30;99.90;;;;;;5053965;28;20420;-77
2022/02/07 01:07:46;;;;;;;4.63;1.53;;;3.40;99.90;;;;;;5054300;28;20979;-78
2022/02/07 01:10:15;;;;;;;4.73;1.40;;;3.40;99.90;;;;;;5054271;28;20427;-78
2022/02/07 01:23:22;;;;;;;8.00;1.23;;;3.30;99.90;;;;;;5048696;28;20713;-78
2022/02/07 01:48:14;;;;;;;4.27;1.50;;;3.70;99.90;;;;;;5076035;28;20477;-78
2022/02/07 01:55:54;;;;;;;4.63;1.83;;;3.80;99.90;;;;;;5075627;28;20831;-77
2022/02/07 01:58:21;;;;;;;4.60;1.50;;;3.70;99.90;;;;;;5058929;28;20508;-78
2022/02/07 02:00:47;;;;;;;5.00;1.83;;;3.70;99.90;;;;;;5058223;28;20444;-79
2022/02/07 02:03:13;;;;;;;8.37;1.57;;;3.80;99.90;;;;;;5058792;28;20598;-79
2022/02/07 02:05:39;;;;;;;6.70;1.73;;;3.70;99.90;;;;;;5058557;28;20866;-78
2022/02/07 02:08:13;;;;;;;9.60;2.17;;;3.80;99.90;;;;;;5058268;28;20512;-79
2022/02/07 02:10:43;;;;;;;6.97;1.97;;;3.90;99.90;;;;;;5058457;28;20187;-77
2022/02/07 02:13:13;;;;;;;11.13;2.07;;;3.90;99.90;;;;;;5058084;28;20599;-78
2022/02/07 02:16:08;;;;;;;6.70;2.10;;;4.00;99.90;;;;;;5058425;28;20566;-78
2022/02/07 02:19:00;;;;;;;8.50;2.00;;;4.00;99.90;;;;;;5075476;28;20486;-78
2022/02/07 02:37:22;;;;;;;5.47;1.60;;;3.90;99.90;;;;;;5075227;28;20445;-78
2022/02/07 02:45:31;;;;;;;4.83;2.60;;;3.40;99.90;;;;;;5074638;28;20467;-78
2022/02/07 02:48:01;;;;;;;6.17;1.90;;;3.30;99.90;;;;;;5056866;28;20774;-78
2022/02/07 02:52:54;;;;;;;8.77;1.63;;;3.20;99.90;;;;;;5074633;28;20452;-75
2022/02/07 02:55:20;;;;;;;4.13;1.60;;;3.20;99.90;;;;;;5054738;28;20439;-75
2022/02/07 02:57:45;;;;;;;9.00;2.10;;;3.10;99.90;;;;;;5055700;28;20994;-77
2022/02/07 03:00:12;;;;;;;3.63;1.47;;;3.10;99.90;;;;;;5057357;28;20485;-78
2022/02/07 03:02:37;;;;;;;6.10;1.60;;;3.10;99.90;;;;;;5056991;28;20199;-78
2022/02/07 03:05:03;;;;;;;5.60;1.73;;;3.10;99.90;;;;;;5056387;28;20417;-75
2022/02/07 03:07:29;;;;;;;2.87;1.10;;;3.10;99.90;;;;;;5055824;28;20601;-77
2022/02/07 03:09:58;;;;;;;3.40;1.67;;;3.10;99.90;;;;;;5057306;28;20428;-78
2022/02/07 03:12:24;;;;;;;8.27;1.90;;;3.00;99.90;;;;;;5055813;28;20812;-78
2022/02/07 03:14:50;;;;;;;4.50;1.60;;;3.00;99.90;;;;;;5056530;28;20472;-78
2022/02/07 03:17:16;;;;;;;7.37;2.20;;;3.00;99.90;;;;;;5056141;28;20436;-75
2022/02/07 03:19:42;;;;;;;3.83;1.37;;;3.00;99.90;;;;;;5055714;28;20417;-75
2022/02/07 03:22:09;;;;;;;4.60;1.30;;;3.00;99.90;;;;;;5055555;28;20406;-75
2022/02/07 03:24:35;;;;;;;7.23;2.03;;;3.00;99.90;;;;;;5055623;28;20185;-75
2022/02/07 03:27:01;;;;;;;5.67;1.13;;;3.00;99.90;;;;;;5054968;28;20490;-75
2022/02/07 03:29:27;;;;;;;7.23;1.50;;;3.00;99.90;;;;;;5055429;28;20422;-77
2022/02/07 03:31:53;;;;;;;2.80;1.10;;;3.00;99.90;;;;;;5055883;28;20795;-75
2022/02/07 03:34:18;;;;;;;3.07;1.30;;;3.00;99.90;;;;;;5055054;28;20602;-75
2022/02/07 03:36:44;;;;;;;3.17;1.30;;;3.10;99.90;;;;;;5054865;28;20604;-75
2022/02/07 03:39:10;;;;;;;6.43;1.30;;;3.10;99.90;;;;;;5055120;28;20591;-75
2022/02/07 03:41:37;;;;;;;6.53;1.37;;;3.10;99.90;;;;;;5054950;28;20414;-78
2022/02/07 03:44:04;;;;;;;2.40;1.20;;;3.10;99.90;;;;;;5056047;28;20574;-78
2022/02/07 03:46:29;;;;;;;11.43;3.00;;;3.10;99.90;;;;;;5055467;28;20511;-75
2022/02/07 03:48:55;;;;;;;8.13;1.77;;;3.10;99.90;;;;;;5054925;28;20566;-77
2022/02/07 03:51:21;;;;;;;4.33;1.57;;;3.10;99.90;;;;;;5056199;28;20186;-77
2022/02/07 03:53:47;;;;;;;3.70;1.77;;;3.10;99.90;;;;;;5054971;28;20206;-75
2022/02/07 03:56:13;;;;;;;5.23;1.97;;;3.20;99.90;;;;;;5054621;28;20477;-75
2022/02/07 03:58:39;;;;;;;6.17;1.50;;;3.10;99.90;;;;;;5054482;28;20274;-75
2022/02/07 04:01:04;;;;;;;8.10;1.60;;;3.10;99.90;;;;;;5054560;28;21142;-75
2022/02/07 04:03:33;;;;;;;2.73;1.13;;;3.10;99.90;;;;;;5054688;28;20201;-78
2022/02/07 04:06:11;;;;;;;6.03;1.10;;;3.20;99.90;;;;;;5055438;28;20236;-78
2022/02/07 04:08:41;;;;;;;3.77;1.33;;;3.20;99.90;;;;;;5054766;28;20986;-75
2022/02/07 04:11:17;;;;;;;6.57;1.83;;;3.20;99.90;;;;;;5054591;28;20795;-75
2022/02/07 04:13:49;;;;;;;5.30;2.60;;;3.20;99.90;;;;;;5054321;28;20518;-77
2022/02/07 04:16:15;;;;;;;9.50;1.87;;;3.10;99.90;;;;;;5055495;28;20413;-77
2022/02/07 04:21:16;;;;;;;3.90;1.63;;;3.20;99.90;;;;;;5073386;28;20420;-77
2022/02/07 04:23:42;;;;;;;6.40;2.67;;;3.20;99.90;;;;;;5055599;28;20433;-78
2022/02/07 04:26:07;;;;;;;2.87;1.00;;;3.30;99.90;;;;;;5055670;28;20256;-78
2022/02/07 04:28:33;;;;;;;7.00;1.97;;;3.30;99.90;;;;;;5055492;28;20549;-77
2022/02/07 04:30:59;;;;;;;7.13;1.77;;;3.40;99.90;;;;;;5055379;28;20183;-77
2022/02/07 04:33:25;;;;;;;5.67;1.80;;;3.30;99.90;;;;;;5055407;28;20259;-78
2022/02/07 04:35:51;;;;;;;7.47;2.10;;;3.30;99.90;;;;;;5054522;28;20181;-75
2022/02/07 04:38:17;;;;;;;5.63;2.00;;;3.40;99.90;;;;;;5053751;28;20175;-77
2022/02/07 04:40:43;;;;;;;3.20;1.60;;;3.30;99.90;;;;;;5055328;28;20515;-77
2022/02/07 04:43:11;;;;;;;7.00;1.67;;;3.30;99.90;;;;;;5054920;28;20202;-78
2022/02/07 04:45:51;;;;;;;6.00;1.60;;;3.40;99.90;;;;;;5055312;28;20189;-78
2022/02/07 04:54:04;;;;;;;9.90;2.27;;;3.20;99.90;;;;;;5073841;28;20548;-78
2022/02/07 04:59:15;;;;;;;8.17;1.87;;;3.00;99.90;;;;;;5073706;28;20562;-78
2022/02/07 05:04:21;;;;;;;9.33;1.77;;;3.00;99.90;;;;;;5073528;28;20437;-78
2022/02/07 05:14:59;;;;;;;7.20;2.00;;;3.00;99.90;;;;;;5073790;28;20430;-78
2022/02/07 05:17:27;;;;;;;7.97;1.90;;;3.10;99.90;;;;;;5053557;28;20437;-78
2022/02/07 05:19:52;;;;;;;6.63;1.87;;;3.10;99.90;;;;;;5058274;28;20419;-78
2022/02/07 05:22:18;;;;;;;6.57;1.97;;;3.20;99.90;;;;;;5076394;28;20416;-77
2022/02/07 05:24:44;;;;;;;9.37;2.23;;;3.30;99.90;;;;;;5057630;28;20234;-75
2022/02/07 05:27:10;;;;;;;6.33;1.37;;;3.40;99.90;;;;;;5057576;28;20190;-77
2022/02/07 05:29:36;;;;;;;5.53;2.80;;;3.50;99.90;;;;;;5057911;28;20186;-77
2022/02/07 05:32:02;;;;;;;5.13;1.70;;;3.50;99.90;;;;;;5057655;28;20424;-77
2022/02/07 05:34:28;;;;;;;6.70;2.53;;;3.60;99.90;;;;;;5057863;28;20479;-76
2022/02/07 05:36:56;;;;;;;7.10;2.10;;;3.60;99.90;;;;;;5057612;28;20416;-77
2022/02/07 05:39:25;;;;;;;6.63;1.63;;;3.60;99.90;;;;;;5057730;28;20183;-77
2022/02/07 05:41:50;;;;;;;5.80;1.63;;;3.60;99.90;;;;;;5057419;28;20433;-77
2022/02/07 05:44:16;;;;;;;7.60;3.23;;;3.70;99.90;;;;;;5057638;28;20964;-77
2022/02/07 05:46:42;;;;;;;6.83;1.80;;;3.70;99.90;;;;;;5057273;28;20183;-78
2022/02/07 05:49:08;;;;;;;5.90;2.10;;;3.80;99.90;;;;;;5057746;28;20225;-77
2022/02/07 05:51:34;;;;;;;4.87;1.70;;;3.80;99.90;;;;;;5057751;28;20456;-77
2022/02/07 05:54:00;;;;;;;4.77;2.17;;;3.90;99.90;;;;;;5057560;28;20524;-77
2022/02/07 05:56:25;;;;;;;5.70;2.57;;;3.90;99.90;;;;;;5057356;28;20203;-77
2022/02/07 05:58:51;;;;;;;6.00;1.70;;;3.90;99.90;;;;;;5057610;28;20185;-78
2022/02/07 06:01:17;;;;;;;12.70;2.80;;;3.90;99.90;;;;;;5057503;28;20237;-77
2022/02/07 06:03:42;;;;;;;3.70;1.23;;;4.00;99.90;;;;;;5057193;28;20202;-77
2022/02/07 06:06:08;;;;;;;4.07;1.80;;;4.00;99.90;;;;;;5057111;28;20179;-77
2022/02/07 06:08:34;;;;;;;14.60;2.63;;;4.00;99.90;;;;;;5057162;28;20183;-77
2022/02/07 06:11:01;;;;;;;4.00;1.57;;;4.10;99.90;;;;;;5056711;28;20186;-75
2022/02/07 06:13:27;;;;;;;5.10;1.77;;;4.10;99.90;;;;;;5057000;28;20263;-78
2022/02/07 06:15:53;;;;;;;7.77;2.57;;;4.10;99.90;;;;;;5056993;28;20828;-77
2022/02/07 06:18:20;;;;;;;5.77;2.20;;;4.10;99.90;;;;;;5057037;28;20436;-77
2022/02/07 06:20:48;;;;;;;6.97;1.90;;;4.20;99.90;;;;;;5056921;28;20424;-77
2022/02/07 06:23:15;;;;;;;7.50;2.07;;;4.20;99.90;;;;;;5056653;28;20535;-77
2022/02/07 06:25:41;;;;;;;10.83;2.33;;;4.20;99.90;;;;;;5057237;28;20418;-77
2022/02/07 06:28:06;;;;;;;10.53;2.20;;;4.20;99.90;;;;;;5057202;28;20435;-77
2022/02/07 06:30:32;;;;;;;9.10;2.50;;;4.30;99.90;;;;;;5056961;28;20421;-77
2022/02/07 06:32:58;;;;;;;6.33;1.80;;;4.20;99.90;;;;;;5056316;28;20551;-75
2022/02/07 06:35:24;;;;;;;6.13;2.03;;;4.20;99.90;;;;;;5056270;28;20222;-77
2022/02/07 06:37:51;;;;;;;5.93;2.90;;;4.30;99.90;;;;;;5057227;28;20789;-77
2022/02/07 06:40:17;;;;;;;5.73;2.73;;;4.30;99.90;;;;;;5057069;28;20524;-77
2022/02/07 06:42:43;;;;;;;17.40;2.97;;;4.30;99.90;;;;;;5057020;28;20437;-77
2022/02/07 06:45:09;;;;;;;7.13;2.30;;;4.40;99.90;;;;;;5057258;28;20421;-77
2022/02/07 06:47:35;;;;;;;8.13;2.23;;;4.30;99.90;;;;;;5056806;28;20435;-77
2022/02/07 06:50:01;;;;;;;6.73;1.87;;;4.30;99.90;;;;;;5056929;28;20468;-77
2022/02/07 06:52:27;;;;;;;10.27;2.80;;;4.30;99.90;;;;;;5056866;28;20442;-78
2022/02/07 06:54:53;;;;;;;4.20;1.37;;;4.30;99.90;;;;;;5056587;28;20211;-78
2022/02/07 06:57:21;;;;;;;7.20;2.00;;;4.30;99.90;;;;;;5056426;28;20211;-77
2022/02/07 06:59:48;;;;;;;10.03;2.40;;;4.40;99.90;;;;;;5071516;22;20199;-80
2022/02/07 07:02:14;;;;;;;5.27;1.90;;;4.40;99.90;;;;;;5080673;28;20591;-79
2022/02/07 07:04:40;;;;;;;8.50;1.80;;;4.40;99.90;;;;;;5081492;28;20423;-80
2022/02/07 07:07:06;;;;;;;5.07;2.20;;;4.40;99.90;;;;;;5082386;28;20413;-78
2022/02/07 07:09:33;;;;;;;7.17;2.10;;;4.40;99.90;;;;;;5081996;28;20175;-80
2022/02/07 07:12:03;;;;;;;12.47;2.00;;;4.40;99.90;;;;;;5082512;28;20421;-79
2022/02/07 07:14:40;;;;;;;5.00;1.70;;;4.40;99.90;;;;;;5082177;28;20490;-79
2022/02/07 07:17:06;;;;;;;7.73;1.70;;;4.50;99.90;;;;;;5081665;28;20424;-80
2022/02/07 07:19:31;;;;;;;5.97;1.47;;;4.50;99.90;;;;;;5082516;28;20448;-80
2022/02/07 07:21:59;;;;;;;9.90;2.00;;;4.50;99.90;;;;;;5081418;28;20419;-79
2022/02/07 07:24:25;;;;;;;7.23;1.97;;;4.50;99.90;;;;;;5080278;28;20244;-79
2022/02/07 07:26:51;;;;;;;9.17;1.53;;;4.50;99.90;;;;;;5078143;28;20899;-79
2022/02/07 07:29:21;;;;;;;9.70;1.73;;;4.40;99.90;;;;;;5078620;28;20509;-80
2022/02/07 07:31:54;;;;;;;6.03;1.93;;;4.50;99.90;;;;;;5079829;28;20210;-80
2022/02/07 07:34:20;;;;;;;8.03;2.20;;;4.50;99.90;;;;;;5078600;28;20533;-79
2022/02/07 07:36:46;;;;;;;3.77;1.70;;;4.60;99.90;;;;;;5078782;28;20417;-80
2022/02/07 07:39:13;;;;;;;4.73;1.80;;;4.60;99.90;;;;;;5078482;28;20559;-80
2022/02/07 07:41:44;;;;;;;7.27;2.07;;;4.60;99.90;;;;;;5077298;28;20406;-80
2022/02/07 07:44:10;;;;;;;5.13;2.30;;;4.50;99.90;;;;;;5078386;28;20464;-80
2022/02/07 07:46:37;;;;;;;11.47;2.67;;;4.50;99.90;;;;;;5077763;28;20413;-80
2022/02/07 07:49:10;;;;;;;5.17;2.00;;;4.60;99.90;;;;;;5078137;28;20422;-80
2022/02/07 07:54:21;;;;;;;7.20;2.60;;;4.70;99.90;;;;;;5096317;28;20978;-78
2022/02/07 08:02:19;;;;;;;6.37;2.00;;;4.80;99.90;;;;;;5096101;28;20423;-80
2022/02/07 08:04:47;;;;;;;7.00;2.40;;;4.80;99.90;;;;;;5077000;28;20417;-80
2022/02/07 08:07:38;;;;;;;4.23;2.00;;;4.90;99.90;;;;;;5076923;28;20418;-78
2022/02/07 08:10:24;;;;;;;16.07;3.10;;;4.90;99.90;;;;;;5094485;28;20411;-79
2022/02/07 08:12:50;;;;;;;8.90;2.33;;;5.00;99.90;;;;;;5095051;28;20434;-79
2022/02/07 08:15:17;;;;;;;8.03;2.43;;;5.00;99.90;;;;;;5076964;28;20795;-80
2022/02/07 08:17:43;;;;;;;8.50;2.80;;;5.00;99.90;;;;;;5076307;28;20214;-78
2022/02/07 08:20:10;;;;;;;7.60;2.30;;;5.10;99.90;;;;;;5076346;28;20437;-80
2022/02/07 08:22:36;;;;;;;3.73;1.57;;;5.20;99.90;;;;;;5076183;28;20437;-78
2022/02/07 08:25:02;;;;;;;5.13;1.80;;;5.10;99.90;;;;;;5076791;28;21066;-79
2022/02/07 08:27:29;;;;;;;6.43;2.17;;;5.20;99.90;;;;;;5075782;28;20450;-80
2022/02/07 08:29:57;;;;;;;10.07;2.30;;;5.20;99.90;;;;;;5075981;28;20866;-80
2022/02/07 08:32:23;;;;;;;9.10;2.50;;;5.20;99.90;;;;;;5076123;28;20915;-78
2022/02/07 08:34:49;;;;;;;21.43;2.70;;;5.20;99.90;;;;;;5075754;28;20959;-79
2022/02/07 08:37:15;;;;;;;4.80;2.07;;;5.20;99.90;;;;;;5075813;28;20473;-80
2022/02/07 08:39:43;;;;;;;6.10;2.00;;;5.20;99.90;;;;;;5075705;28;20620;-78
2022/02/07 08:42:10;;;;;;;13.00;2.20;;;5.10;99.90;;;;;;5075977;28;20791;-79
2022/02/07 08:44:36;;;;;;;7.40;2.03;;;5.30;99.90;;;;;;5075999;28;20427;-78
2022/02/07 08:47:03;;;;;;;9.60;3.63;;;5.40;99.90;;;;;;5075394;28;20481;-79
2022/02/07 08:49:29;;;;;;;14.23;2.80;;;5.40;99.90;;;;;;5076030;28;20427;-78
2022/02/07 08:51:55;;;;;;;6.60;2.00;;;5.50;99.90;;;;;;5093725;28;20417;-79
2022/02/07 08:54:25;;;;;;;6.50;2.10;;;5.50;99.90;;;;;;5075066;28;20212;-80
2022/02/07 08:57:12;;;;;;;6.10;2.60;;;5.50;99.90;;;;;;5075466;28;20276;-79
2022/02/07 08:59:49;;;;;;;6.80;2.13;;;5.60;99.90;;;;;;5093499;28;20614;-80
2022/02/07 09:02:24;;;;;;;11.57;2.63;;;5.60;99.90;;;;;;5075440;28;20941;-79
2022/02/07 09:05:07;;;;;;;8.13;3.00;;;5.70;99.90;;;;;;5075027;28;20424;-78
2022/02/07 09:07:36;;;;;;;8.37;2.67;;;5.80;99.90;;;;;;5075378;28;20423;-80
2022/02/07 09:10:03;;;;;;;6.73;2.23;;;6.00;99.90;;;;;;5075501;28;20506;-80
2022/02/07 09:12:29;;;;;;;6.73;2.30;;;6.10;99.90;;;;;;5074830;28;20442;-80
2022/02/07 09:15:04;;;;;;;7.03;2.10;;;6.20;99.90;;;;;;5074679;28;20603;-79
2022/02/07 09:17:30;;;;;;;9.53;2.70;;;6.20;99.90;;;;;;5074617;28;20622;-78
2022/02/07 09:19:56;;;;;;;8.60;2.53;;;6.30;99.90;;;;;;5075149;28;20518;-79
2022/02/07 09:22:22;;;;;;;7.37;1.97;;;6.30;99.90;;;;;;5074803;28;20181;-79
2022/02/07 09:24:47;;;;;;;10.33;2.37;;;6.30;99.90;;;;;;5075143;28;20176;-79
2022/02/07 09:27:13;;;;;;;7.20;1.93;;;6.30;99.90;;;;;;5074325;28;20182;-78
2022/02/07 09:29:40;;;;;;;5.03;2.10;;;6.40;99.90;;;;;;5075035;28;20427;-78
2022/02/07 09:32:07;;;;;;;7.93;2.10;;;6.40;99.90;;;;;;5074943;28;20194;-79
2022/02/07 09:34:34;;;;;;;9.33;3.40;;;6.40;99.90;;;;;;5075343;28;20992;-78
2022/02/07 09:37:01;;;;;;;7.80;2.40;;;6.50;99.90;;;;;;5058228;28;20463;-78
2022/02/07 09:39:30;;;;;;;10.80;2.43;;;6.50;99.90;;;;;;5075260;28;20431;-79
2022/02/07 09:42:03;;;;;;;10.97;2.33;;;6.40;99.90;;;;;;5075124;28;20179;-80
2022/02/07 09:44:40;;;;;;;7.63;2.63;;;6.40;99.90;;;;;;5074981;28;20423;-78
2022/02/07 09:47:08;;;;;;;11.87;3.20;;;6.50;99.90;;;;;;5075047;28;20434;-80
2022/02/07 09:49:34;;;;;;;9.60;3.40;;;6.70;99.90;;;;;;5075656;28;20455;-78
2022/02/07 09:52:03;;;;;;;17.07;3.00;;;6.90;99.90;;;;;;5075788;28;20919;-79
2022/02/07 09:54:30;;;;;;;5.83;2.07;;;7.10;99.90;;;;;;5075381;28;20474;-78
2022/02/07 09:56:56;;;;;;;15.43;2.60;;;7.30;99.90;;;;;;5075225;28;20451;-78
2022/02/07 09:59:28;;;;;;;12.60;2.40;;;7.20;99.90;;;;;;5075458;28;20790;-78
2022/02/07 10:01:57;;;;;;;8.30;3.93;;;7.10;99.90;;;;;;5075569;28;20198;-79
2022/02/07 10:04:39;;;;;;;8.20;2.50;;;6.90;99.90;;;;;;5076277;28;20463;-78
2022/02/07 10:07:27;;;;;;;8.50;2.90;;;6.90;99.90;;;;;;5079168;28;20431;-78
2022/02/07 10:10:17;;;;;;;9.47;2.87;;;6.90;99.90;;;;;;5079810;28;20437;-79
2022/02/07 10:13:18;;;;;;;19.23;3.00;;;6.90;99.90;;;;;;5079686;28;20954;-78
2022/02/07 10:39:52;;;;;;;11.40;3.13;;;7.70;99.90;;;;;;5098082;28;20432;-80
2022/02/07 10:44:58;;;;;;;8.53;3.07;;;8.20;99.90;;;;;;5098011;28;20499;-80
2022/02/07 10:47:35;;;;;;;8.13;2.73;;;8.40;99.90;;;;;;5078651;28;20178;-79
2022/02/07 10:50:14;;;;;;;8.20;3.50;;;8.70;99.90;;;;;;5078653;28;20419;-80
2022/02/07 10:52:59;;;;;;;15.33;3.70;;;8.80;99.90;;;;;;5078630;28;20439;-79
2022/02/07 10:55:36;;;;;;;7.17;2.57;;;8.80;99.90;;;;;;5078898;28;20440;-78
2022/02/07 10:58:06;;;;;;;10.77;2.53;;;8.70;99.90;;;;;;5078219;28;20412;-79
2022/02/07 11:00:41;;;;;;;6.47;2.33;;;8.50;99.90;;;;;;5078625;28;20432;-79
2022/02/07 11:03:14;;;;;;;10.27;3.13;;;8.30;99.90;;;;;;5077926;28;20432;-79
2022/02/07 11:05:49;;;;;;;7.63;3.60;;;8.50;99.90;;;;;;5078231;28;20409;-79
2022/02/07 11:08:24;;;;;;;10.63;3.10;;;8.50;99.90;;;;;;5077661;28;20428;-78
2022/02/07 11:11:17;;;;;;;9.23;2.93;;;8.20;99.90;;;;;;5078038;28;20422;-78
2022/02/07 11:14:11;;;;;;;13.87;3.53;;;8.20;99.90;;;;;;5077726;28;20472;-80
2022/02/07 11:19:46;;;;;;;8.30;2.70;;;8.00;99.90;;;;;;5097905;28;20436;-80
2022/02/07 11:27:28;;;;;;;16.43;3.23;;;8.10;99.90;;;;;;5097676;28;20416;-80
2022/02/07 11:29:53;;;;;;;7.37;2.90;;;8.20;99.90;;;;;;5079529;28;20435;-80
2022/02/07 11:35:12;;;;;;;7.83;3.10;;;8.20;99.90;;;;;;5097440;28;20617;-79
2022/02/07 11:37:39;;;;;;;8.50;3.40;;;8.30;99.90;;;;;;5079111;28;20923;-79
2022/02/07 11:40:25;;;;;;;19.37;3.40;;;8.40;99.90;;;;;;5079425;28;20429;-80
2022/02/07 11:43:06;;;;;;;8.60;3.00;;;8.60;99.90;;;;;;5079100;28;20424;-80
2022/02/07 11:46:07;;;;;;;9.07;3.03;;;9.50;99.90;;;;;;5078987;28;20841;-81
2022/02/07 11:48:46;;;;;;;6.30;2.93;;;10.70;99.90;;;;;;5079327;28;20506;-80
2022/02/07 11:51:24;;;;;;;11.53;2.80;;;10.10;99.90;;;;;;5078592;28;20416;-80
2022/02/07 11:53:59;;;;;;;6.87;2.80;;;9.20;99.90;;;;;;5078893;28;21005;-80
2022/02/07 11:57:06;;;;;;;10.03;3.73;;;9.00;99.90;;;;;;5078958;28;20428;-80
2022/02/07 11:59:28;;;;;;;9.93;2.90;;;8.80;99.90;;;;;;5096282;28;20425;-79
2022/02/07 12:02:15;;;;;;;8.70;2.17;;;8.70;99.90;;;;;;5079297;28;20440;-80
2022/02/07 12:04:49;;;;;;;7.10;2.50;;;8.50;99.90;;;;;;5078711;28;20477;-80
2022/02/07 12:07:15;;;;;;;13.47;5.00;;;8.50;99.90;;;;;;5078739;28;20418;-80
2022/02/07 12:12:46;;;;;;;13.13;3.77;;;8.30;99.90;;;;;;5096861;28;20420;-80
2022/02/07 12:15:14;;;;;;;5.53;2.80;;;8.20;99.90;;;;;;5078552;28;20891;-78
2022/02/07 12:17:43;;;;;;;8.63;2.70;;;8.00;99.90;;;;;;5078316;28;20424;-81
2022/02/07 12:20:12;;;;;;;12.17;3.20;;;7.90;99.90;;;;;;5078434;28;20423;-80
2022/02/07 12:22:54;;;;;;;7.93;2.90;;;8.00;99.90;;;;;;5078001;28;20447;-80
2022/02/07 12:25:38;;;;;;;9.67;2.77;;;8.00;99.90;;;;;;5078187;28;20509;-80
2022/02/07 12:28:08;;;;;;;5.60;3.27;;;8.00;99.90;;;;;;5077770;28;20416;-79
2022/02/07 12:33:09;;;;;;;7.43;2.90;;;8.10;99.90;;;;;;5096618;28;20439;-79
2022/02/07 12:35:35;;;;;;;7.17;3.70;;;8.10;99.90;;;;;;5077398;28;20423;-80
2022/02/07 12:38:01;;;;;;;7.53;2.20;;;8.10;99.90;;;;;;5077966;28;20795;-80
2022/02/07 12:40:27;;;;;;;4.30;2.70;;;8.00;99.90;;;;;;5078000;28;20999;-79
2022/02/07 12:42:55;;;;;;;9.30;3.30;;;8.10;99.90;;;;;;5077650;28;20198;-80
2022/02/07 12:45:26;;;;;;;5.40;2.80;;;8.10;99.90;;;;;;5078220;28;20429;-80
2022/02/07 12:47:56;;;;;;;7.47;2.70;;;8.20;99.90;;;;;;5077577;28;20415;-79
2022/02/07 12:50:23;;;;;;;9.47;2.13;;;8.10;99.90;;;;;;5077727;28;20416;-79
2022/02/07 12:52:53;;;;;;;10.93;2.50;;;8.20;99.90;;;;;;5077514;28;20460;-80
2022/02/07 12:55:19;;;;;;;7.97;2.03;;;8.10;99.90;;;;;;5078130;28;20447;-80
2022/02/07 12:57:45;;;;;;;4.10;1.73;;;8.30;99.90;;;;;;5077360;28;20416;-79
2022/02/07 13:00:14;;;;;;;9.47;2.60;;;8.30;99.90;;;;;;5089653;22;20341;-78
2022/02/07 13:02:42;;;;;;;8.03;2.73;;;8.90;99.90;;;;;;5076055;28;20479;-78
2022/02/07 13:05:12;;;;;;;4.43;1.90;;;10.30;99.90;;;;;;5075261;28;20462;-76
2022/02/07 13:07:43;;;;;;;5.70;2.33;;;10.80;99.90;;;;;;5073741;28;20412;-75
2022/02/07 13:10:12;;;;;;;5.87;2.40;;;11.00;99.90;;;;;;5073824;28;20508;-76
2022/02/07 13:15:26;;;;;;;9.03;2.43;;;10.00;99.90;;;;;;5092185;28;20429;-75
2022/02/07 13:18:01;;;;;;;12.40;4.47;;;9.60;99.90;;;;;;5073519;28;20443;-76
2022/02/07 13:20:27;;;;;;;11.40;3.00;;;9.90;99.90;;;;;;5073860;28;20452;-76
2022/02/07 13:23:14;;;;;;;4.30;2.00;;;10.20;99.90;;;;;;5073447;28;20519;-76
2022/02/07 13:25:46;;;;;;;4.50;2.63;;;9.90;99.90;;;;;;5073626;28;20428;-76
2022/02/07 13:28:17;;;;;;;16.67;3.13;;;9.90;99.90;;;;;;5073323;28;20436;-76
2022/02/07 13:30:47;;;;;;;8.77;2.13;;;10.10;99.90;;;;;;5073595;28;20425;-76
2022/02/07 13:33:13;;;;;;;8.20;2.50;;;10.10;99.90;;;;;;5073312;28;20468;-75
2022/02/07 13:35:43;;;;;;;5.03;3.00;;;9.80;99.90;;;;;;5073539;28;20469;-75
2022/02/07 13:38:10;;;;;;;8.80;2.37;;;9.70;99.90;;;;;;5073544;28;20660;-75
2022/02/07 13:40:42;;;;;;;6.50;2.40;;;9.40;99.90;;;;;;5076294;28;20447;-75
2022/02/07 13:43:22;;;;;;;7.97;2.97;;;10.00;99.90;;;;;;5077367;28;20864;-75
2022/02/07 13:46:02;;;;;;;4.27;2.30;;;10.10;99.90;;;;;;5077331;28;20910;-76
2022/02/07 13:48:30;;;;;;;2.90;1.73;;;10.50;99.90;;;;;;5077059;28;20419;-76
2022/02/07 13:50:58;;;;;;;7.63;2.90;;;10.40;99.90;;;;;;5077482;28;20819;-76
2022/02/07 13:53:25;;;;;;;6.27;2.20;;;10.30;99.90;;;;;;5076974;28;20532;-76
2022/02/07 13:56:01;;;;;;;5.17;2.30;;;10.00;99.90;;;;;;5077150;28;20481;-76
2022/02/07 13:58:31;;;;;;;8.97;3.10;;;9.70;99.90;;;;;;5077053;28;20915;-76
2022/02/07 14:00:59;;;;;;;7.90;2.20;;;9.70;99.90;;;;;;5076920;28;20440;-76
2022/02/07 14:03:39;;;;;;;7.90;2.67;;;9.70;99.90;;;;;;5076841;28;20440;-76
2022/02/07 14:06:12;;;;;;;8.43;3.70;;;9.50;99.90;;;;;;5077036;28;20435;-75
2022/02/07 14:08:38;;;;;;;7.60;2.70;;;9.40;99.90;;;;;;5076574;28;20424;-75
2022/02/07 14:11:07;;;;;;;9.90;3.40;;;9.20;99.90;;;;;;5076789;28;20485;-76
2022/02/07 14:13:37;;;;;;;3.77;2.40;;;9.30;99.90;;;;;;5076634;28;20221;-75
2022/02/07 14:16:05;;;;;;;5.87;2.50;;;9.30;99.90;;;;;;5076956;28;20833;-75
2022/02/07 14:18:32;;;;;;;6.47;3.00;;;9.30;99.90;;;;;;5076487;28;20470;-75
2022/02/07 14:21:08;;;;;;;4.67;2.40;;;9.30;99.90;;;;;;5076695;28;20910;-75
2022/02/07 14:23:34;;;;;;;6.00;2.30;;;9.20;99.90;;;;;;5076443;28;20447;-75
2022/02/07 14:26:01;;;;;;;9.17;2.53;;;9.10;99.90;;;;;;5076587;28;20680;-76
2022/02/07 14:28:27;;;;;;;8.03;2.97;;;9.20;99.90;;;;;;5076344;28;20485;-76
2022/02/07 14:30:54;;;;;;;5.60;2.47;;;9.00;99.90;;;;;;5076476;28;20469;-75
2022/02/07 14:33:20;;;;;;;5.43;2.10;;;9.00;99.90;;;;;;5076361;28;20844;-75
2022/02/07 14:35:46;;;;;;;6.73;3.03;;;8.70;99.90;;;;;;5076291;28;20421;-75
2022/02/07 14:38:12;;;;;;;5.80;2.10;;;8.70;99.90;;;;;;5076246;28;20412;-75
2022/02/07 14:40:41;;;;;;;6.73;2.53;;;8.60;99.90;;;;;;5076263;28;20424;-76
2022/02/07 14:43:14;;;;;;;7.80;4.67;;;8.70;99.90;;;;;;5076253;28;20455;-75
2022/02/07 14:45:53;;;;;;;4.10;1.90;;;8.80;99.90;;;;;;5076249;28;20420;-76
2022/02/07 14:48:19;;;;;;;13.50;2.20;;;8.90;99.90;;;;;;5075958;28;20423;-75
2022/02/07 14:50:45;;;;;;;4.73;2.03;;;9.10;99.90;;;;;;5076118;28;20431;-76
2022/02/07 14:53:13;;;;;;;11.40;2.70;;;9.10;99.90;;;;;;5075946;28;20459;-75
2022/02/07 14:55:39;;;;;;;4.70;1.63;;;9.10;99.90;;;;;;5076007;28;20184;-75
2022/02/07 14:58:06;;;;;;;10.83;3.00;;;9.20;99.90;;;;;;5075884;28;20915;-76
2022/02/07 15:00:32;;;;;;;5.97;1.97;;;9.20;99.90;;;;;;5075757;28;20471;-76
2022/02/07 15:02:59;;;;;;;7.50;2.10;;;9.20;99.90;;;;;;5075798;28;20472;-75
2022/02/07 15:05:26;;;;;;;3.93;2.20;;;9.00;99.90;;;;;;5075849;28;20797;-76
2022/02/07 15:07:52;;;;;;;10.43;2.83;;;9.10;99.90;;;;;;5075656;28;20933;-76
2022/02/07 15:10:18;;;;;;;4.60;2.23;;;9.00;99.90;;;;;;5075736;28;20416;-76
2022/02/07 15:12:45;;;;;;;6.47;2.60;;;9.10;99.90;;;;;;5075913;28;20515;-76
2022/02/07 15:15:11;;;;;;;3.70;2.10;;;9.00;99.90;;;;;;5075596;28;20467;-75
2022/02/07 15:17:37;;;;;;;6.47;1.77;;;9.00;99.90;;;;;;5075379;28;20515;-76
2022/02/07 15:20:04;;;;;;;6.47;2.03;;;9.00;99.90;;;;;;5075533;28;20417;-76
2022/02/07 15:22:31;;;;;;;4.93;2.00;;;9.10;99.90;;;;;;5075420;28;20240;-75
2022/02/07 15:25:00;;;;;;;5.13;1.83;;;9.00;99.90;;;;;;5075509;28;20994;-75
2022/02/07 15:27:28;;;;;;;4.43;2.40;;;8.80;99.90;;;;;;5075364;28;20429;-76
2022/02/07 15:29:58;;;;;;;3.50;1.90;;;8.70;99.90;;;;;;5075279;28;20436;-75